Time;durP1;ratioP1;P1;durP2;ratioP2;P2;SDS_P1;SDS_P2;PMS_P1;PMS_P2;Temp;Humidity;BMP_temperature;BMP_pressure;BME280_temperature;BME280_humidity;BME280_pressure;Samples;Min_cycle;Max_cycle;Signal;HPM_P1;HPM_P2
2023/02/12 00:01:22;;;;;;;46.95;29.42;;;7.60;99.90;;;;;;5029338;28;20344;-74
2023/02/12 00:03:48;;;;;;;52.97;30.25;;;7.60;99.90;;;;;;5013830;28;20883;-74
2023/02/12 00:06:14;;;;;;;54.72;29.55;;;7.60;99.90;;;;;;5009693;28;20041;-75
2023/02/12 00:08:41;;;;;;;58.88;32.05;;;7.60;99.90;;;;;;5029610;28;20038;-75
2023/02/12 00:11:12;;;;;;;56.63;30.75;;;7.60;99.90;;;;;;4997595;28;20084;-74
2023/02/12 00:13:39;;;;;;;50.33;29.05;;;7.60;99.90;;;;;;5016960;28;20050;-74
2023/02/12 00:16:06;;;;;;;48.58;28.67;;;7.60;99.90;;;;;;5022126;28;20069;-74
2023/02/12 00:18:32;;;;;;;48.75;28.95;;;7.60;99.90;;;;;;5009735;28;20132;-74
2023/02/12 00:20:58;;;;;;;52.95;29.85;;;7.70;99.90;;;;;;5023889;28;20446;-75
2023/02/12 00:23:24;;;;;;;54.15;30.63;;;7.60;99.90;;;;;;5012794;28;20063;-74
2023/02/12 00:25:50;;;;;;;57.72;31.17;;;7.60;99.90;;;;;;5013175;28;20033;-74
2023/02/12 00:28:17;;;;;;;49.42;28.40;;;7.60;99.90;;;;;;5006807;28;20073;-74
2023/02/12 00:30:43;;;;;;;59.80;30.92;;;7.60;99.90;;;;;;4988347;28;22608;-74
2023/02/12 00:33:08;;;;;;;48.08;28.83;;;7.60;99.90;;;;;;4995989;28;20068;-74
2023/02/12 00:35:34;;;;;;;49.25;29.05;;;7.60;99.90;;;;;;5029673;28;20045;-74
2023/02/12 00:38:00;;;;;;;57.15;29.08;;;7.60;99.90;;;;;;5034622;28;20775;-75
2023/02/12 00:40:26;;;;;;;51.38;27.80;;;7.50;99.90;;;;;;5005227;28;20041;-74
2023/02/12 00:42:53;;;;;;;46.25;27.73;;;7.60;99.90;;;;;;5011215;28;20052;-74
2023/02/12 00:45:19;;;;;;;47.78;27.33;;;7.60;99.90;;;;;;5022470;28;20725;-74
2023/02/12 00:47:45;;;;;;;51.40;28.70;;;7.60;99.90;;;;;;5009924;28;20147;-74
2023/02/12 00:50:11;;;;;;;51.63;27.85;;;7.60;99.90;;;;;;4995320;28;20108;-74
2023/02/12 00:52:37;;;;;;;48.30;28.15;;;7.60;99.90;;;;;;5042810;28;20530;-75
2023/02/12 00:55:03;;;;;;;49.80;29.80;;;7.60;99.90;;;;;;5022712;28;20824;-74
2023/02/12 00:57:29;;;;;;;51.90;29.65;;;7.60;99.90;;;;;;5022216;28;20052;-74
2023/02/12 00:59:54;;;;;;;57.90;30.70;;;7.60;99.90;;;;;;5026229;28;20049;-73
2023/02/12 01:02:20;;;;;;;48.17;28.25;;;7.60;99.90;;;;;;5013398;28;20764;-73
2023/02/12 01:04:46;;;;;;;55.53;30.70;;;7.50;99.90;;;;;;5010954;28;20060;-73
2023/02/12 01:07:12;;;;;;;62.33;30.45;;;7.60;99.90;;;;;;5028254;28;20049;-74
2023/02/12 01:09:38;;;;;;;56.10;30.60;;;7.50;99.90;;;;;;5015673;28;20367;-73
2023/02/12 01:12:04;;;;;;;72.40;33.85;;;7.60;99.90;;;;;;5025294;28;20052;-74
2023/02/12 01:14:30;;;;;;;48.75;29.25;;;7.60;99.90;;;;;;5022444;28;20060;-74
2023/02/12 01:16:56;;;;;;;51.58;27.17;;;7.60;99.90;;;;;;5004715;28;20041;-74
2023/02/12 01:19:22;;;;;;;61.03;31.30;;;7.50;99.90;;;;;;5006800;28;20056;-74
2023/02/12 01:21:48;;;;;;;51.72;28.92;;;7.50;99.90;;;;;;5011930;28;20068;-74
2023/02/12 01:24:14;;;;;;;52.00;29.13;;;7.50;99.90;;;;;;5025457;28;20046;-74
2023/02/12 01:26:40;;;;;;;47.08;28.02;;;7.50;99.90;;;;;;5014526;28;20052;-75
2023/02/12 01:29:07;;;;;;;50.95;27.67;;;7.50;99.90;;;;;;5007471;28;20050;-74
2023/02/12 01:31:36;;;;;;;43.75;26.67;;;7.60;99.90;;;;;;5020064;28;20103;-74
2023/02/12 01:34:02;;;;;;;52.08;27.85;;;7.50;99.90;;;;;;5003565;28;20517;-74
2023/02/12 01:36:28;;;;;;;59.05;32.60;;;7.50;99.90;;;;;;5004657;28;20049;-73
2023/02/12 01:38:55;;;;;;;47.45;28.08;;;7.50;99.90;;;;;;5007353;28;20511;-73
2023/02/12 01:41:25;;;;;;;64.25;30.17;;;7.50;99.90;;;;;;5021643;28;20050;-74
2023/02/12 01:44:14;;;;;;;62.42;31.23;;;7.50;99.90;;;;;;5026014;28;20128;-74
2023/02/12 01:46:40;;;;;;;51.67;27.65;;;7.40;99.90;;;;;;5023597;28;20526;-74
2023/02/12 01:49:09;;;;;;;56.97;29.25;;;7.50;99.90;;;;;;5026860;28;20045;-73
2023/02/12 01:51:35;;;;;;;48.22;27.50;;;7.50;99.90;;;;;;5021386;28;20470;-73
2023/02/12 01:54:03;;;;;;;85.47;36.42;;;7.50;99.90;;;;;;5011708;28;20052;-74
2023/02/12 01:56:32;;;;;;;50.17;28.80;;;7.50;99.90;;;;;;5028523;28;20049;-74
2023/02/12 01:58:58;;;;;;;;;;;7.50;99.90;;;;;;4984183;28;20158;-74
2023/02/12 02:01:26;;;;;;;52.25;30.05;;;7.50;99.90;;;;;;5043396;28;19915;-74
2023/02/12 02:04:03;;;;;;;55.13;28.08;;;7.50;99.90;;;;;;4993109;28;20386;-74
2023/02/12 02:06:33;;;;;;;55.37;29.10;;;7.40;99.90;;;;;;5004906;28;20068;-74
2023/02/12 02:09:00;;;;;;;54.80;27.75;;;7.40;99.90;;;;;;5027723;28;20284;-74
2023/02/12 02:17:24;;;;;;;46.30;25.88;;;7.50;99.90;;;;;;5023222;28;20444;-74
2023/02/12 02:20:02;;;;;;;40.63;24.35;;;7.50;99.90;;;;;;5027428;28;20084;-75
2023/02/12 02:22:40;;;;;;;48.88;26.05;;;7.50;99.90;;;;;;5041636;28;20080;-74
2023/02/12 02:25:43;;;;;;;44.88;25.63;;;7.40;99.90;;;;;;5020588;28;20115;-74
2023/02/12 02:28:44;;;;;;;46.78;25.38;;;7.40;99.90;;;;;;5020592;28;20790;-75
2023/02/12 02:31:13;;;;;;;51.83;26.00;;;7.40;99.90;;;;;;5041500;28;20045;-74
2023/02/12 02:33:51;;;;;;;39.97;24.08;;;7.40;99.90;;;;;;5022194;28;20389;-74
2023/02/12 02:36:28;;;;;;;47.17;24.17;;;7.40;99.90;;;;;;5007524;28;20042;-74
2023/02/12 02:39:05;;;;;;;53.35;26.90;;;7.40;99.90;;;;;;5027107;28;20045;-74
2023/02/12 02:41:40;;;;;;;42.95;24.67;;;7.40;99.90;;;;;;5027487;28;20401;-73
2023/02/12 02:44:12;;;;;;;40.90;23.83;;;7.50;99.90;;;;;;5010211;28;20049;-74
2023/02/12 02:46:46;;;;;;;48.60;26.55;;;7.40;99.90;;;;;;5010667;28;20470;-74
2023/02/12 02:49:32;;;;;;;46.47;24.95;;;7.50;99.90;;;;;;4972774;28;20822;-74
2023/02/12 02:52:07;;;;;;;47.75;25.85;;;7.50;99.90;;;;;;5002234;28;20045;-75
2023/02/12 02:54:38;;;;;;;39.88;22.48;;;7.50;99.90;;;;;;4982306;28;20076;-75
2023/02/12 02:57:13;;;;;;;48.63;25.17;;;7.50;99.90;;;;;;5007197;28;20545;-74
2023/02/12 02:59:45;;;;;;;46.03;23.00;;;7.50;99.90;;;;;;5015912;28;20073;-75
2023/02/12 03:02:16;;;;;;;43.47;24.48;;;7.50;99.90;;;;;;5021865;28;20120;-75
2023/02/12 03:04:45;;;;;;;34.03;21.00;;;7.50;99.90;;;;;;5006873;28;20060;-74
2023/02/12 03:07:25;;;;;;;37.97;22.52;;;7.50;99.90;;;;;;5018781;28;20049;-74
2023/02/12 03:10:03;;;;;;;37.95;21.50;;;7.50;99.90;;;;;;5010805;28;20073;-75
2023/02/12 03:12:37;;;;;;;48.17;24.50;;;7.50;99.90;;;;;;5023717;28;20060;-75
2023/02/12 03:15:13;;;;;;;45.58;22.55;;;7.40;99.90;;;;;;5028613;28;20066;-74
2023/02/12 03:17:44;;;;;;;42.00;21.38;;;7.50;99.90;;;;;;5034691;28;20069;-73
2023/02/12 03:20:12;;;;;;;47.88;24.42;;;7.50;99.90;;;;;;5029197;28;20535;-73
2023/02/12 03:22:48;;;;;;;35.35;20.85;;;7.50;99.90;;;;;;4991824;28;20132;-74
2023/02/12 03:25:17;;;;;;;44.13;23.77;;;7.40;99.90;;;;;;5010553;28;20489;-76
2023/02/12 03:27:59;;;;;;;50.30;24.55;;;7.50;99.90;;;;;;5021168;28;20764;-75
2023/02/12 03:30:30;;;;;;;43.70;21.92;;;7.50;99.90;;;;;;5018666;28;20065;-74
2023/02/12 03:33:23;;;;;;;43.78;24.00;;;7.50;99.90;;;;;;5012643;28;20050;-74
2023/02/12 03:36:00;;;;;;;38.17;20.90;;;7.50;99.90;;;;;;5029151;28;20525;-74
2023/02/12 03:38:47;;;;;;;46.35;21.95;;;7.40;99.90;;;;;;5024878;28;20056;-74
2023/02/12 03:41:19;;;;;;;49.15;24.50;;;7.40;99.90;;;;;;5027118;28;20049;-75
2023/02/12 03:43:55;;;;;;;48.45;23.05;;;7.40;99.90;;;;;;5008071;28;20107;-75
2023/02/12 03:46:33;;;;;;;50.45;23.88;;;7.40;99.90;;;;;;5026129;28;20128;-75
2023/02/12 03:49:11;;;;;;;44.47;23.88;;;7.40;99.90;;;;;;5004170;28;20128;-74
2023/02/12 03:51:41;;;;;;;35.38;21.63;;;7.40;99.90;;;;;;5026855;28;20405;-75
2023/02/12 03:54:10;;;;;;;42.45;22.77;;;7.50;99.90;;;;;;4985500;28;20051;-75
2023/02/12 03:56:48;;;;;;;51.80;25.00;;;7.40;99.90;;;;;;5012757;28;20049;-74
2023/02/12 03:59:13;;;;;;;41.83;22.83;;;7.40;99.90;;;;;;5030998;28;20045;-75
2023/02/12 04:01:39;;;;;;;45.47;23.88;;;7.40;99.90;;;;;;4992162;28;20646;-75
2023/02/12 04:04:06;;;;;;;46.38;23.48;;;7.40;99.90;;;;;;5038808;28;20162;-74
2023/02/12 04:06:31;;;;;;;60.13;28.35;;;7.40;99.90;;;;;;5024433;28;20056;-74
2023/02/12 04:09:00;;;;;;;47.60;24.08;;;7.40;99.90;;;;;;5026000;28;20043;-74
2023/02/12 04:11:46;;;;;;;40.28;24.45;;;7.40;99.90;;;;;;4996856;28;20041;-75
2023/02/12 04:14:42;;;;;;;39.05;22.63;;;7.40;99.90;;;;;;5026148;28;20053;-74
2023/02/12 04:17:20;;;;;;;51.67;23.08;;;7.40;99.90;;;;;;5017650;28;20111;-74
2023/02/12 04:20:14;;;;;;;51.55;25.73;;;7.30;99.90;;;;;;5022201;28;20045;-74
2023/02/12 04:23:13;;;;;;;42.22;25.08;;;7.30;99.90;;;;;;5017571;28;20059;-75
2023/02/12 04:25:54;;;;;;;43.20;22.98;;;7.40;99.90;;;;;;5038670;28;20048;-75
2023/02/12 04:28:48;;;;;;;41.80;23.80;;;7.40;99.90;;;;;;5022930;28;20045;-74
2023/02/12 04:31:28;;;;;;;45.05;23.75;;;7.40;99.90;;;;;;5006932;28;20061;-74
2023/02/12 04:34:12;;;;;;;45.90;24.88;;;7.40;99.90;;;;;;5033355;28;20549;-74
2023/02/12 04:36:44;;;;;;;42.60;23.38;;;7.30;99.90;;;;;;5020806;28;20136;-74
2023/02/12 04:39:13;;;;;;;43.17;21.77;;;7.30;99.90;;;;;;5011009;28;20466;-75
2023/02/12 04:41:39;;;;;;;47.03;26.33;;;7.40;99.90;;;;;;4999094;28;20137;-75
2023/02/12 04:44:22;;;;;;;42.10;23.45;;;7.40;99.90;;;;;;4996592;28;20132;-74
2023/02/12 04:46:50;;;;;;;39.13;22.60;;;7.40;99.90;;;;;;5013689;28;20042;-74
2023/02/12 04:49:18;;;;;;;37.10;22.42;;;7.30;99.90;;;;;;5004295;28;20536;-74
2023/02/12 04:51:45;;;;;;;45.70;24.75;;;7.30;99.90;;;;;;5013155;28;20114;-75
2023/02/12 04:54:11;;;;;;;49.20;25.30;;;7.40;99.90;;;;;;5024138;28;20136;-74
2023/02/12 04:56:37;;;;;;;59.13;26.85;;;7.30;99.90;;;;;;5022433;28;20046;-74
2023/02/12 04:59:03;;;;;;;44.47;25.17;;;7.30;99.90;;;;;;5028569;28;20533;-73
2023/02/12 05:01:29;;;;;;;56.97;27.23;;;7.30;99.90;;;;;;5011247;28;20202;-74
2023/02/12 05:03:55;;;;;;;53.75;24.67;;;7.30;99.90;;;;;;4995854;28;20530;-75
2023/02/12 05:06:24;;;;;;;41.30;23.20;;;7.30;99.90;;;;;;5013011;28;20049;-74
2023/02/12 05:08:52;;;;;;;73.32;31.10;;;7.30;99.90;;;;;;5013202;28;20107;-74
2023/02/12 05:11:17;;;;;;;49.42;25.08;;;7.30;99.90;;;;;;4996131;28;20104;-74
2023/02/12 05:13:44;;;;;;;45.92;25.33;;;7.20;99.90;;;;;;5022284;28;20475;-75
2023/02/12 05:16:10;;;;;;;66.20;29.48;;;7.30;99.90;;;;;;5032743;28;20042;-74
2023/02/12 05:18:37;;;;;;;64.63;28.90;;;7.20;99.90;;;;;;4994989;28;20401;-74
2023/02/12 05:21:03;;;;;;;58.08;25.67;;;7.20;99.90;;;;;;5015492;28;20045;-74
2023/02/12 05:23:30;;;;;;;47.80;26.33;;;7.30;99.90;;;;;;5032943;28;20056;-74
2023/02/12 05:26:02;;;;;;;52.47;26.73;;;7.30;99.90;;;;;;5018682;28;20046;-73
2023/02/12 05:28:28;;;;;;;62.53;27.27;;;7.30;99.90;;;;;;5020207;28;20049;-74
2023/02/12 05:30:54;;;;;;;68.65;30.05;;;7.30;99.90;;;;;;5005899;28;20139;-74
2023/02/12 05:33:19;;;;;;;52.25;25.88;;;7.20;99.90;;;;;;5022101;28;20046;-74
2023/02/12 05:35:46;;;;;;;53.97;26.23;;;7.30;99.90;;;;;;5010587;28;20069;-73
2023/02/12 05:38:12;;;;;;;48.60;24.15;;;7.30;99.90;;;;;;5006322;28;20115;-73
2023/02/12 05:40:39;;;;;;;55.85;25.10;;;7.30;99.90;;;;;;4989468;28;20390;-74
2023/02/12 05:43:04;;;;;;;73.05;30.35;;;7.30;99.90;;;;;;5020945;28;20053;-73
2023/02/12 05:45:32;;;;;;;67.25;28.70;;;7.30;99.90;;;;;;5024216;28;20123;-73
2023/02/12 05:47:57;;;;;;;70.72;29.33;;;7.30;99.90;;;;;;5005158;28;20139;-74
2023/02/12 05:50:23;;;;;;;57.70;24.25;;;7.30;99.90;;;;;;5018206;28;20454;-74
2023/02/12 05:52:50;;;;;;;85.53;29.10;;;7.30;99.90;;;;;;4998972;28;20054;-74
2023/02/12 05:55:17;;;;;;;59.95;25.55;;;7.30;99.90;;;;;;5045039;28;20037;-74
2023/02/12 05:57:43;;;;;;;63.85;26.25;;;7.30;99.90;;;;;;4992004;28;20056;-74
2023/02/12 06:00:10;;;;;;;57.97;25.33;;;7.30;99.90;;;;;;5015459;28;20140;-75
2023/02/12 06:02:37;;;;;;;44.40;20.42;;;7.30;99.90;;;;;;5018359;28;20045;-74
2023/02/12 06:05:03;;;;;;;55.78;25.17;;;7.30;99.90;;;;;;5001336;28;20045;-74
2023/02/12 06:07:29;;;;;;;59.00;25.52;;;7.30;99.90;;;;;;4994695;28;20977;-74
2023/02/12 06:09:55;;;;;;;71.25;27.58;;;7.30;99.90;;;;;;5011693;28;20118;-74
2023/02/12 06:12:21;;;;;;;60.95;27.55;;;7.30;99.90;;;;;;5019465;28;20037;-74
2023/02/12 06:14:47;;;;;;;58.58;26.25;;;7.30;99.90;;;;;;5015195;28;20064;-74
2023/02/12 06:17:12;;;;;;;57.33;26.13;;;7.30;99.90;;;;;;5016774;28;20053;-74
2023/02/12 06:19:41;;;;;;;45.78;23.40;;;7.30;99.90;;;;;;5010705;28;20081;-74
2023/02/12 06:22:07;;;;;;;49.47;23.60;;;7.30;99.90;;;;;;5023541;28;20762;-75
2023/02/12 06:24:33;;;;;;;58.75;25.70;;;7.30;99.90;;;;;;5006377;28;20064;-76
2023/02/12 06:27:00;;;;;;;62.75;27.70;;;7.30;99.90;;;;;;5022115;28;20046;-75
2023/02/12 06:29:26;;;;;;;54.78;25.95;;;7.30;99.90;;;;;;5025933;28;20042;-75
2023/02/12 06:31:51;;;;;;;50.78;25.55;;;7.30;99.90;;;;;;5005940;28;20048;-74
2023/02/12 06:34:17;;;;;;;61.25;27.00;;;7.30;99.90;;;;;;5026193;28;20049;-75
2023/02/12 06:36:43;;;;;;;69.53;29.98;;;7.30;99.90;;;;;;5006895;28;20053;-74
2023/02/12 06:39:12;;;;;;;66.00;27.45;;;7.30;99.90;;;;;;5022236;28;20044;-74
2023/02/12 06:41:38;;;;;;;62.03;26.58;;;7.30;99.90;;;;;;5034487;28;20056;-74
2023/02/12 06:44:04;;;;;;;69.13;29.95;;;7.30;99.90;;;;;;5041038;28;20053;-75
2023/02/12 06:46:30;;;;;;;70.55;29.27;;;7.30;99.90;;;;;;5024415;28;20478;-75
2023/02/12 06:48:57;;;;;;;63.92;28.30;;;7.30;99.90;;;;;;5020287;28;20386;-75
2023/02/12 06:51:23;;;;;;;74.05;29.05;;;7.40;99.90;;;;;;5027073;28;20135;-74
2023/02/12 06:53:52;;;;;;;57.80;26.52;;;7.30;99.90;;;;;;5009805;28;20483;-74
2023/02/12 06:56:18;;;;;;;61.20;27.65;;;7.30;99.90;;;;;;5026360;28;20054;-74
2023/02/12 06:58:46;;;;;;;59.85;26.25;;;7.30;99.90;;;;;;5010950;28;20065;-74
2023/02/12 07:01:14;;;;;;;72.90;27.75;;;7.30;99.90;;;;;;5040820;28;20049;-74
2023/02/12 07:03:40;;;;;;;73.10;28.17;;;7.30;99.90;;;;;;5028829;28;20114;-74
2023/02/12 07:06:06;;;;;;;58.60;26.67;;;7.20;99.90;;;;;;5011819;28;20056;-74
2023/02/12 07:08:32;;;;;;;63.20;28.15;;;7.30;99.90;;;;;;5021870;28;20049;-74
2023/02/12 07:10:58;;;;;;;50.72;26.45;;;7.30;99.90;;;;;;5026933;28;20478;-74
2023/02/12 07:13:24;;;;;;;104.60;32.83;;;7.30;99.90;;;;;;5007121;28;20123;-74
2023/02/12 07:15:49;;;;;;;77.68;29.05;;;7.30;99.90;;;;;;5029040;28;20486;-74
2023/02/12 07:18:15;;;;;;;77.28;28.20;;;7.30;99.90;;;;;;5011183;28;20053;-74
2023/02/12 07:20:41;;;;;;;54.58;26.23;;;7.30;99.90;;;;;;5025174;28;20045;-75
2023/02/12 07:23:10;;;;;;;75.20;29.80;;;7.30;99.90;;;;;;5007608;28;20042;-74
2023/02/12 07:25:36;;;;;;;61.20;26.65;;;7.30;99.90;;;;;;5023711;28;20084;-74
2023/02/12 07:28:02;;;;;;;82.25;28.40;;;7.30;99.90;;;;;;5055432;28;20065;-76
2023/02/12 07:30:28;;;;;;;58.42;26.08;;;7.30;99.90;;;;;;5025892;28;20049;-75
2023/02/12 07:32:54;;;;;;;133.45;35.53;;;7.30;99.90;;;;;;5027222;28;20049;-74
2023/02/12 07:35:20;;;;;;;93.35;32.08;;;7.30;99.90;;;;;;4990469;28;20371;-74
2023/02/12 07:37:45;;;;;;;55.72;25.70;;;7.30;99.90;;;;;;5031210;28;20045;-75
2023/02/12 07:40:14;;;;;;;43.28;23.25;;;7.30;99.90;;;;;;4992878;28;20042;-74
2023/02/12 07:42:39;;;;;;;;;;;7.30;99.90;;;;;;5011260;28;20473;-74
2023/02/12 07:45:06;;;;;;;66.75;26.85;;;7.30;99.90;;;;;;5025570;28;19920;-74
2023/02/12 07:47:32;;;;;;;56.25;25.40;;;7.30;99.90;;;;;;5007589;28;20045;-74
2023/02/12 07:49:57;;;;;;;49.97;23.65;;;7.30;99.90;;;;;;5023452;28;20102;-74
2023/02/12 07:52:23;;;;;;;60.28;25.50;;;7.30;99.90;;;;;;5019933;28;20087;-74
2023/02/12 07:54:49;;;;;;;47.53;22.25;;;7.40;99.90;;;;;;5029819;28;20079;-75
2023/02/12 07:57:14;;;;;;;79.30;28.90;;;7.30;99.90;;;;;;5026055;28;20045;-76
2023/02/12 07:59:43;;;;;;;54.10;26.58;;;7.40;99.90;;;;;;5018191;28;20048;-74
2023/02/12 08:02:09;;;;;;;55.17;26.42;;;7.40;99.90;;;;;;5008565;28;20056;-74
2023/02/12 08:04:35;;;;;;;63.65;26.58;;;7.30;99.90;;;;;;4993090;28;20045;-74
2023/02/12 08:07:01;;;;;;;116.38;33.08;;;7.30;99.90;;;;;;5006695;28;20038;-74
2023/02/12 08:09:32;;;;;;;86.13;29.13;;;7.30;99.90;;;;;;5019726;28;20049;-74
2023/02/12 08:11:58;;;;;;;107.93;33.35;;;7.30;99.90;;;;;;5008372;28;20041;-74
2023/02/12 08:14:25;;;;;;;87.10;29.10;;;7.40;99.90;;;;;;5041278;28;20567;-74
2023/02/12 08:16:53;;;;;;;57.80;26.90;;;7.30;99.90;;;;;;5024070;28;20041;-75
2023/02/12 08:19:19;;;;;;;;;;;7.30;99.90;;;;;;5020829;28;20052;-75
2023/02/12 08:21:46;;;;;;;75.68;27.25;;;7.40;99.90;;;;;;5039343;28;19917;-75
2023/02/12 08:24:13;;;;;;;78.93;27.92;;;7.40;99.90;;;;;;5025230;28;20053;-74
2023/02/12 08:26:39;;;;;;;59.13;25.65;;;7.40;99.90;;;;;;4994667;28;20047;-74
2023/02/12 08:29:11;;;;;;;51.28;23.75;;;7.40;99.90;;;;;;5030502;28;20480;-74
2023/02/12 08:31:40;;;;;;;47.03;23.00;;;7.50;99.90;;;;;;5025484;28;20045;-74
2023/02/12 08:34:06;;;;;;;47.10;22.90;;;7.40;99.90;;;;;;5022255;28;20526;-74
2023/02/12 08:36:37;;;;;;;47.80;22.10;;;7.40;99.90;;;;;;4990630;28;20195;-75
2023/02/12 08:39:03;;;;;;;38.65;19.83;;;7.40;99.90;;;;;;4992839;28;20049;-74
2023/02/12 08:41:29;;;;;;;45.28;21.52;;;7.40;99.90;;;;;;5010770;28;20050;-75
2023/02/12 08:43:57;;;;;;;44.72;20.33;;;7.50;99.90;;;;;;5006144;28;20056;-74
2023/02/12 08:46:24;;;;;;;39.65;20.17;;;7.50;99.90;;;;;;5025590;28;20072;-75
2023/02/12 08:49:01;;;;;;;33.58;19.38;;;7.50;99.90;;;;;;5009661;28;20478;-76
2023/02/12 08:51:30;;;;;;;40.42;21.20;;;7.60;99.90;;;;;;5040160;28;20041;-77
2023/02/12 08:54:01;;;;;;;37.60;19.98;;;7.60;99.90;;;;;;5031361;28;20106;-78
2023/02/12 08:56:28;;;;;;;44.20;21.45;;;7.60;99.90;;;;;;5040954;28;20084;-75
2023/02/12 08:58:56;;;;;;;40.50;20.10;;;7.60;99.90;;;;;;5004934;28;20053;-74
2023/02/12 09:01:22;;;;;;;32.95;17.40;;;7.50;99.90;;;;;;5010577;28;20454;-75
2023/02/12 09:03:48;;;;;;;41.88;19.58;;;7.50;99.90;;;;;;5025761;28;20444;-75
2023/02/12 09:06:14;;;;;;;41.85;19.13;;;7.50;99.90;;;;;;5005997;28;20041;-76
2023/02/12 09:08:40;;;;;;;38.90;18.77;;;7.60;99.90;;;;;;5016061;28;20041;-74
2023/02/12 09:11:08;;;;;;;43.35;19.05;;;7.60;99.90;;;;;;5045919;28;20113;-77
2023/02/12 09:13:34;;;;;;;33.90;18.27;;;7.80;99.90;;;;;;5012861;28;20053;-77
2023/02/12 09:16:01;;;;;;;36.65;17.73;;;7.90;99.90;;;;;;5011630;28;20136;-77
2023/02/12 09:18:27;;;;;;;29.13;16.50;;;7.90;99.90;;;;;;5032855;28;20038;-77
2023/02/12 09:20:52;;;;;;;29.80;16.60;;;8.10;99.90;;;;;;5026225;28;20140;-77
2023/02/12 09:23:18;;;;;;;30.27;16.75;;;8.30;99.90;;;;;;5022565;28;20052;-76
2023/02/12 09:25:45;;;;;;;36.08;17.35;;;8.30;99.90;;;;;;4999544;28;20033;-77
2023/02/12 09:28:12;;;;;;;27.63;15.63;;;8.30;99.90;;;;;;5015832;28;20047;-77
2023/02/12 09:30:37;;;;;;;28.92;16.48;;;8.20;99.90;;;;;;5019526;28;20038;-77
2023/02/12 09:33:04;;;;;;;30.55;15.32;;;8.30;99.90;;;;;;4995092;28;20041;-77
2023/02/12 09:35:32;;;;;;;28.85;14.27;;;8.10;99.90;;;;;;5031351;28;20041;-77
2023/02/12 09:37:59;;;;;;;27.13;15.18;;;8.20;99.90;;;;;;5042824;28;20113;-75
2023/02/12 09:40:53;;;;;;;29.13;15.45;;;8.30;99.90;;;;;;5013273;28;20421;-75
2023/02/12 09:43:43;;;;;;;25.27;14.15;;;8.10;99.90;;;;;;5031627;28;20049;-74
2023/02/12 09:46:14;;;;;;;26.00;13.85;;;8.00;99.90;;;;;;5016438;28;20107;-74
2023/02/12 09:49:00;;;;;;;29.63;14.27;;;7.90;99.90;;;;;;5019782;28;20639;-75
2023/02/12 09:51:27;;;;;;;24.92;13.50;;;7.80;99.90;;;;;;5012700;28;20522;-75
2023/02/12 09:54:00;;;;;;;28.77;14.18;;;7.80;99.90;;;;;;4986495;28;20054;-74
2023/02/12 09:56:26;;;;;;;32.78;16.38;;;7.80;99.90;;;;;;4986237;28;20045;-74
2023/02/12 09:58:54;;;;;;;33.35;16.45;;;7.80;99.90;;;;;;4974887;28;20114;-74
2023/02/12 10:01:20;;;;;;;24.42;13.68;;;7.90;99.90;;;;;;4997403;28;20041;-74
2023/02/12 10:03:48;;;;;;;23.38;13.18;;;7.90;99.90;;;;;;5009010;28;20056;-74
2023/02/12 10:06:21;;;;;;;21.75;12.15;;;7.90;99.90;;;;;;4996749;28;20793;-74
2023/02/12 10:08:55;;;;;;;23.17;12.63;;;8.10;99.90;;;;;;5013689;28;20042;-73
2023/02/12 10:11:34;;;;;;;20.45;11.65;;;8.10;99.90;;;;;;5017176;28;20042;-74
2023/02/12 10:14:21;;;;;;;21.13;12.73;;;8.10;99.90;;;;;;5018533;28;20057;-75
2023/02/12 10:17:13;;;;;;;23.17;13.60;;;8.10;99.90;;;;;;5028339;28;20053;-74
2023/02/12 10:19:59;;;;;;;25.33;14.57;;;8.00;99.90;;;;;;5026630;28;20623;-76
2023/02/12 10:22:37;;;;;;;25.58;14.30;;;8.00;99.90;;;;;;5006035;28;20419;-74
2023/02/12 10:25:26;;;;;;;27.25;14.73;;;8.00;99.90;;;;;;4989419;28;20045;-75
2023/02/12 10:27:54;;;;;;;22.75;14.60;;;8.00;99.90;;;;;;5011676;28;20056;-74
2023/02/12 10:30:24;;;;;;;20.73;12.98;;;7.90;99.90;;;;;;5012958;28;20057;-74
2023/02/12 10:32:55;;;;;;;25.27;16.08;;;7.90;99.90;;;;;;5025528;28;20466;-73
2023/02/12 10:35:24;;;;;;;30.15;18.25;;;7.90;99.90;;;;;;5017513;28;20773;-74
2023/02/12 10:37:52;;;;;;;26.80;14.52;;;7.90;99.90;;;;;;5026998;28;20056;-74
2023/02/12 10:40:45;;;;;;;28.70;16.05;;;7.90;99.90;;;;;;5010352;28;20100;-75
2023/02/12 10:43:12;;;;;;;24.67;14.40;;;7.80;99.90;;;;;;5021917;28;20046;-76
2023/02/12 10:45:38;;;;;;;28.10;15.82;;;7.70;99.90;;;;;;5007383;28;20175;-76
2023/02/12 10:48:15;;;;;;;25.10;15.75;;;7.70;99.90;;;;;;5027647;28;20126;-76
2023/02/12 10:50:59;;;;;;;23.98;14.82;;;7.80;99.90;;;;;;5024450;28;20048;-74
2023/02/12 10:53:33;;;;;;;30.75;16.27;;;7.80;99.90;;;;;;4995711;28;20049;-75
2023/02/12 10:56:17;;;;;;;28.75;16.30;;;7.70;99.90;;;;;;5034627;28;20140;-75
2023/02/12 10:58:49;;;;;;;29.55;17.65;;;7.80;99.90;;;;;;4981889;28;20049;-75
2023/02/12 11:01:37;;;;;;;31.27;17.15;;;7.80;99.90;;;;;;5012176;28;20046;-76
2023/02/12 11:04:29;;;;;;;32.20;17.88;;;7.90;99.90;;;;;;5033156;28;20582;-75
2023/02/12 11:07:15;;;;;;;31.00;17.08;;;7.80;99.90;;;;;;5015083;28;20048;-75
2023/02/12 11:09:45;;;;;;;30.63;17.83;;;7.90;99.90;;;;;;5007511;28;20348;-74
2023/02/12 11:12:17;;;;;;;32.30;18.50;;;7.90;99.90;;;;;;5008593;28;20037;-74
2023/02/12 11:14:54;;;;;;;30.63;18.58;;;7.80;99.90;;;;;;5018330;28;20219;-74
2023/02/12 11:17:29;;;;;;;35.40;18.73;;;7.80;99.90;;;;;;4994261;28;20049;-73
2023/02/12 11:20:17;;;;;;;34.15;17.75;;;7.80;99.90;;;;;;5017365;28;20057;-75
2023/02/12 11:23:00;;;;;;;35.30;19.93;;;7.90;99.90;;;;;;5057581;28;20438;-74
2023/02/12 11:25:29;;;;;;;33.25;18.50;;;7.80;99.90;;;;;;5023413;28;20613;-73
2023/02/12 11:28:18;;;;;;;30.20;17.95;;;7.90;99.90;;;;;;4997417;28;20041;-73
2023/02/12 11:31:01;;;;;;;34.60;18.38;;;7.90;99.90;;;;;;5058991;28;20049;-74
2023/02/12 11:33:32;;;;;;;31.83;18.20;;;7.90;99.90;;;;;;5063955;28;20081;-74
2023/02/12 11:36:23;;;;;;;39.97;19.65;;;7.90;99.90;;;;;;5003766;28;20052;-73
2023/02/12 11:38:53;;;;;;;31.02;18.23;;;7.90;99.90;;;;;;5023290;28;20042;-75
2023/02/12 11:41:35;;;;;;;29.58;17.83;;;7.90;99.90;;;;;;5044877;28;20045;-75
2023/02/12 11:44:15;;;;;;;32.33;18.05;;;7.90;99.90;;;;;;5026225;28;20053;-75
2023/02/12 11:46:48;;;;;;;36.95;19.70;;;7.90;99.90;;;;;;5022708;28;20564;-74
2023/02/12 11:49:23;;;;;;;29.25;17.13;;;7.90;99.90;;;;;;5007960;28;20049;-74
2023/02/12 11:51:49;;;;;;;31.17;17.85;;;7.90;99.90;;;;;;5024431;28;20045;-75
2023/02/12 11:54:19;;;;;;;30.45;16.90;;;7.90;99.90;;;;;;5042897;28;20052;-75
2023/02/12 11:56:45;;;;;;;29.95;17.98;;;8.00;99.90;;;;;;5027625;28;20061;-75
2023/02/12 11:59:28;;;;;;;27.25;17.08;;;7.90;99.90;;;;;;5032748;28;20370;-75
2023/02/12 12:01:54;;;;;;;30.48;17.75;;;7.90;99.90;;;;;;5048731;28;20126;-76
2023/02/12 12:04:19;;;;;;;32.30;16.38;;;8.10;99.90;;;;;;5037056;28;20129;-75
2023/02/12 12:06:47;;;;;;;26.38;15.95;;;8.50;99.90;;;;;;5024066;28;20041;-76
2023/02/12 12:09:47;;;;;;;35.63;18.45;;;8.50;99.90;;;;;;5009933;28;20045;-77
2023/02/12 12:12:20;;;;;;;28.17;16.70;;;8.40;99.90;;;;;;5028052;28;20373;-75
2023/02/12 12:21:00;;;;;;;30.90;15.45;;;8.30;99.90;;;;;;5055215;28;20042;-77
2023/02/12 12:23:43;;;;;;;26.52;14.38;;;8.30;99.90;;;;;;5022412;28;20089;-75
2023/02/12 12:26:24;;;;;;;23.75;14.98;;;8.40;99.90;;;;;;5009056;28;20414;-75
2023/02/12 12:29:05;;;;;;;27.27;15.18;;;8.40;99.90;;;;;;4999936;28;20370;-74
2023/02/12 12:31:45;;;;;;;27.13;15.73;;;8.40;99.90;;;;;;5024345;28;20789;-77
2023/02/12 12:34:19;;;;;;;24.60;15.38;;;8.40;99.90;;;;;;5034762;28;20076;-77
2023/02/12 12:37:08;;;;;;;30.73;15.93;;;8.30;99.90;;;;;;5013048;28;20048;-77
2023/02/12 12:39:45;;;;;;;22.65;14.15;;;8.40;99.90;;;;;;5036558;28;20041;-77
2023/02/12 12:42:38;;;;;;;26.30;15.20;;;8.40;99.90;;;;;;5029305;28;20037;-78
2023/02/12 12:45:31;;;;;;;26.27;14.18;;;8.40;99.90;;;;;;5027935;28;20077;-75
2023/02/12 12:48:15;;;;;;;33.17;16.45;;;8.30;99.90;;;;;;5010236;28;20049;-77
2023/02/12 12:50:59;;;;;;;30.38;16.70;;;8.30;99.90;;;;;;5059287;28;20037;-76
2023/02/12 12:54:05;;;;;;;32.28;16.67;;;8.30;99.90;;;;;;5005723;28;20564;-74
2023/02/12 12:56:41;;;;;;;31.83;15.77;;;8.30;99.90;;;;;;5024302;28;20171;-74
2023/02/12 12:59:26;;;;;;;29.67;14.93;;;8.30;99.90;;;;;;5026676;28;20060;-74
2023/02/12 13:02:24;;;;;;;26.85;15.27;;;8.30;99.90;;;;;;5024324;28;20401;-73
2023/02/12 13:05:22;;;;;;;30.88;16.02;;;8.30;99.90;;;;;;5022481;28;20060;-75
2023/02/12 13:08:25;;;;;;;32.10;16.90;;;8.40;99.90;;;;;;5025621;28;20126;-75
2023/02/12 13:11:20;;;;;;;30.90;16.17;;;8.40;99.90;;;;;;5041028;28;20516;-74
2023/02/12 13:13:47;;;;;;;30.67;17.38;;;8.50;99.90;;;;;;5005267;28;20071;-76